Time;durP1;ratioP1;P1;durP2;ratioP2;P2;SDS_P1;SDS_P2;PMS_P1;PMS_P2;Temp;Humidity;BMP_temperature;BMP_pressure;BME280_temperature;BME280_humidity;BME280_pressure;Samples;Min_cycle;Max_cycle;Signal;HPM_P1;HPM_P2
2021/05/20 00:01:48;;;;;;;9.20;4.40;;;;;;;8.17;100.00;97755.38;4993513;28;20036;-75
2021/05/20 00:04:14;;;;;;;10.15;4.70;;;;;;;8.24;100.00;97747.69;4992453;28;20046;-75
2021/05/20 00:06:39;;;;;;;6.18;4.10;;;;;;;8.26;100.00;97756.41;4993144;28;20111;-75
2021/05/20 00:09:05;;;;;;;7.70;4.63;;;;;;;8.23;100.00;97751.53;4992834;28;20026;-75
2021/05/20 00:11:32;;;;;;;5.97;4.75;;;;;;;8.27;100.00;97752.56;4991804;28;20113;-75
2021/05/20 00:13:57;;;;;;;6.35;4.50;;;;;;;8.28;100.00;97759.69;4992883;28;20053;-75
2021/05/20 00:16:23;;;;;;;10.18;4.93;;;;;;;8.30;100.00;97760.19;4993249;28;20758;-76
2021/05/20 00:18:48;;;;;;;5.63;4.32;;;;;;;8.40;100.00;97765.56;4992272;28;20034;-75
2021/05/20 00:21:14;;;;;;;8.27;4.93;;;;;;;8.41;100.00;97767.19;4992670;28;20530;-75
2021/05/20 00:23:39;;;;;;;6.88;4.38;;;;;;;8.46;100.00;97755.41;4992828;28;20085;-75
2021/05/20 00:26:05;;;;;;;6.10;3.67;;;;;;;8.36;100.00;97761.00;4992755;28;20061;-75
2021/05/20 00:28:30;;;;;;;4.97;3.63;;;;;;;8.26;100.00;97761.03;4992556;28;20062;-75
2021/05/20 00:30:56;;;;;;;11.25;3.65;;;;;;;8.24;100.00;97764.03;4992925;28;20030;-76
2021/05/20 00:33:21;;;;;;;3.58;2.83;;;;;;;8.19;100.00;97761.34;4992630;28;20030;-76
2021/05/20 00:35:46;;;;;;;3.55;3.25;;;;;;;8.18;100.00;97761.63;4993427;28;20026;-75
2021/05/20 00:38:12;;;;;;;6.30;3.17;;;;;;;8.17;100.00;97762.75;4992956;28;20025;-76
2021/05/20 00:40:38;;;;;;;5.15;3.47;;;;;;;8.11;100.00;97758.44;4992748;28;20042;-75
2021/05/20 00:43:04;;;;;;;9.85;5.22;;;;;;;8.11;100.00;97763.88;4992677;28;20041;-75
2021/05/20 00:45:30;;;;;;;2.90;2.47;;;;;;;8.18;100.00;97765.16;4993105;28;20438;-76
2021/05/20 00:47:55;;;;;;;4.55;3.22;;;;;;;8.24;100.00;97764.03;4993036;28;20018;-76
2021/05/20 00:50:21;;;;;;;4.75;3.40;;;;;;;8.24;100.00;97772.19;4992930;28;20022;-76
2021/05/20 00:52:46;;;;;;;4.50;2.70;;;;;;;8.14;100.00;97763.31;4992551;28;20026;-76
2021/05/20 00:55:13;;;;;;;7.68;3.45;;;;;;;8.12;100.00;97765.50;4992470;28;20026;-75
2021/05/20 00:57:39;;;;;;;5.88;3.00;;;;;;;8.09;100.00;97761.44;4992512;28;20037;-74
2021/05/20 01:00:12;;;;;;;3.10;2.53;;;;;;;8.23;100.00;97767.88;4992791;28;20026;-76
2021/05/20 01:02:39;;;;;;;4.10;3.40;;;;;;;8.24;100.00;97764.03;4991313;28;20058;-75
2021/05/20 01:05:07;;;;;;;5.40;3.00;;;;;;;8.19;100.00;97761.34;4994785;28;20088;-78
2021/05/20 01:07:32;;;;;;;4.35;3.17;;;;;;;8.12;100.00;97771.75;4993081;28;20054;-75
2021/05/20 01:09:58;;;;;;;6.50;3.15;;;;;;;8.08;100.00;97776.16;4991923;28;20076;-75
2021/05/20 01:12:23;;;;;;;3.60;2.90;;;;;;;8.11;100.00;97775.59;4991907;28;20034;-75
2021/05/20 01:14:48;;;;;;;4.30;3.22;;;;;;;8.03;100.00;97773.47;4991999;28;20491;-75
2021/05/20 01:17:14;;;;;;;6.47;3.22;;;;;;;8.08;100.00;97781.63;4974346;28;20034;-76
2021/05/20 01:19:42;;;;;;;4.78;3.33;;;;;;;8.04;100.00;97769.66;4991845;28;20033;-76
2021/05/20 01:22:08;;;;;;;6.28;4.57;;;;;;;8.04;100.00;97772.38;4992031;28;20028;-76
2021/05/20 01:24:34;;;;;;;3.67;3.25;;;;;;;8.09;100.00;97775.03;4991721;28;20019;-75
2021/05/20 01:27:04;;;;;;;3.13;2.63;;;;;;;8.19;100.00;97782.34;4991662;28;20057;-76
2021/05/20 01:29:30;;;;;;;5.15;3.55;;;;;;;8.06;100.00;97762.00;4991588;28;20026;-76
2021/05/20 01:31:57;;;;;;;3.67;2.75;;;;;;;8.17;100.00;97769.00;4991271;28;20037;-75
2021/05/20 01:34:23;;;;;;;2.97;2.33;;;;;;;8.07;100.00;97774.53;4992007;28;20088;-76
2021/05/20 01:36:49;;;;;;;5.00;3.60;;;;;;;8.13;100.00;97781.56;4991000;28;20022;-76
2021/05/20 01:39:14;;;;;;;3.42;2.92;;;;;;;8.05;100.00;97774.78;4991471;28;20030;-75
2021/05/20 01:41:39;;;;;;;4.75;3.33;;;;;;;7.98;100.00;97787.94;4974436;28;20034;-76
2021/05/20 01:44:05;;;;;;;5.45;3.45;;;;;;;8.00;100.00;97785.75;4991724;28;20022;-76
2021/05/20 01:46:30;;;;;;;2.78;2.35;;;;;;;7.98;100.00;97793.38;4991601;28;20483;-76
2021/05/20 01:48:56;;;;;;;4.95;3.47;;;;;;;8.05;100.00;97788.41;4991436;28;20065;-77
2021/05/20 01:51:22;;;;;;;4.20;3.22;;;;;;;7.95;100.00;97782.25;4991318;28;20487;-75
2021/05/20 01:53:51;;;;;;;5.20;3.85;;;;;;;7.94;100.00;97794.22;4991252;28;20030;-77
2021/05/20 01:56:18;;;;;;;8.52;4.13;;;;;;;7.88;100.00;97788.00;4991265;28;20081;-76
2021/05/20 01:58:44;;;;;;;6.68;3.72;;;;;;;7.86;100.00;97784.72;4991347;28;20482;-75
2021/05/20 02:01:10;;;;;;;5.93;3.83;;;;;;;7.92;100.00;97782.81;4991111;28;20038;-76
2021/05/20 02:03:36;;;;;;;5.57;4.35;;;;;;;7.86;100.00;97775.78;4991063;28;20125;-75
2021/05/20 02:06:03;;;;;;;5.03;4.03;;;;;;;7.90;100.00;97780.34;4991759;28;20034;-76
2021/05/20 02:08:29;;;;;;;5.00;4.47;;;;;;;7.93;100.00;97789.88;4990811;28;20136;-77
2021/05/20 02:10:55;;;;;;;5.05;3.83;;;;;;;7.85;100.00;97799.47;4991093;28;20117;-76
2021/05/20 02:13:21;;;;;;;3.88;3.40;;;;;;;7.94;100.00;97794.22;4990987;28;20030;-75
2021/05/20 02:15:48;;;;;;;6.15;4.10;;;;;;;7.93;100.00;97807.03;4991098;28;20072;-76
2021/05/20 02:18:14;;;;;;;4.35;3.80;;;;;;;7.93;100.00;97790.69;4990409;28;20035;-76
2021/05/20 02:20:39;;;;;;;6.40;4.40;;;;;;;7.98;100.00;97795.28;4973782;28;20022;-76
2021/05/20 02:23:05;;;;;;;4.72;4.10;;;;;;;8.04;100.00;97791.44;4991151;28;20033;-75
2021/05/20 02:25:31;;;;;;;4.70;3.92;;;;;;;7.96;100.00;97798.28;4991129;28;20026;-76
2021/05/20 02:27:56;;;;;;;7.22;5.53;;;;;;;7.99;100.00;97789.53;4973967;28;20692;-75
2021/05/20 02:30:22;;;;;;;4.85;4.35;;;;;;;7.89;100.00;97810.59;4990522;28;20443;-74
2021/05/20 02:32:48;;;;;;;5.82;4.10;;;;;;;7.90;100.00;97804.03;4990228;28;20084;-76
2021/05/20 02:35:14;;;;;;;5.93;4.22;;;;;;;7.84;100.00;97816.06;4990951;28;20444;-75
2021/05/20 02:37:40;;;;;;;4.95;4.07;;;;;;;7.79;100.00;97819.66;4990447;28;20057;-75
2021/05/20 02:40:08;;;;;;;5.93;4.57;;;;;;;7.78;100.00;97804.41;4990326;28;20030;-75
2021/05/20 02:42:34;;;;;;;4.07;3.60;;;;;;;7.80;100.00;97812.28;4990565;28;20086;-75
2021/05/20 02:44:59;;;;;;;5.28;4.25;;;;;;;7.70;100.00;97791.38;4990302;28;20031;-76
2021/05/20 02:47:24;;;;;;;6.55;4.38;;;;;;;7.91;100.00;97824.75;4990528;28;20117;-75
2021/05/20 02:49:50;;;;;;;6.57;4.57;;;;;;;7.80;100.00;97823.97;4994320;28;20033;-75
2021/05/20 02:52:15;;;;;;;5.65;4.63;;;;;;;7.91;100.00;97822.03;4994370;28;20491;-74
2021/05/20 02:54:41;;;;;;;5.95;4.72;;;;;;;7.89;100.00;97818.78;4994874;28;20034;-77
2021/05/20 02:57:07;;;;;;;5.25;4.50;;;;;;;7.86;100.00;97805.72;4994290;28;20490;-76
2021/05/20 02:59:36;;;;;;;5.13;4.63;;;;;;;7.87;100.00;97815.50;4994553;28;20027;-76
2021/05/20 03:02:04;;;;;;;5.50;4.75;;;;;;;7.84;100.00;97813.34;4994514;28;20030;-75
2021/05/20 03:04:31;;;;;;;13.35;5.35;;;;;;;7.87;100.00;97808.16;4994711;28;20099;-76
2021/05/20 03:06:58;;;;;;;4.90;4.38;;;;;;;7.80;100.00;97817.75;4995919;28;20037;-76
2021/05/20 03:09:24;;;;;;;5.88;4.70;;;;;;;7.85;100.00;97806.81;5013795;28;20021;-76
2021/05/20 03:11:49;;;;;;;7.93;5.20;;;;;;;7.91;100.00;97824.75;5013809;28;20034;-76
2021/05/20 03:14:15;;;;;;;5.93;4.88;;;;;;;7.89;100.00;97816.84;5003238;28;20048;-76
2021/05/20 03:16:40;;;;;;;5.40;4.20;;;;;;;7.86;100.00;97816.63;5014336;28;20030;-75
2021/05/20 03:19:05;;;;;;;5.05;4.22;;;;;;;7.87;100.00;97816.31;4998318;28;20022;-77
2021/05/20 03:21:31;;;;;;;5.95;4.80;;;;;;;7.92;100.00;97819.03;5014709;28;20407;-76
2021/05/20 03:23:57;;;;;;;5.22;4.72;;;;;;;7.89;100.00;97818.78;5013144;28;20054;-75
2021/05/20 03:26:23;;;;;;;11.13;4.30;;;;;;;7.88;100.00;97828.03;5012496;28;20029;-75
2021/05/20 03:28:48;;;;;;;5.93;4.28;;;;;;;7.88;100.00;97820.69;5013516;28;20390;-75
2021/05/20 03:31:13;;;;;;;9.00;5.15;;;;;;;7.84;100.00;97814.16;5013477;28;20486;-76
2021/05/20 03:33:41;;;;;;;5.85;4.25;;;;;;;7.82;100.00;97835.41;5013085;28;20040;-75
2021/05/20 03:36:07;;;;;;;6.22;4.13;;;;;;;7.81;100.00;97819.34;5013999;28;20025;-75
2021/05/20 03:38:33;;;;;;;3.53;3.20;;;;;;;7.70;100.00;97821.31;5013052;28;20483;-76
2021/05/20 03:41:00;;;;;;;6.05;3.72;;;;;;;7.63;100.00;97839.88;5012973;28;20116;-75
2021/05/20 03:43:26;;;;;;;5.68;4.50;;;;;;;7.74;100.00;97843.34;5012973;28;20035;-76
2021/05/20 03:45:51;;;;;;;5.50;3.47;;;;;;;7.76;100.00;97841.97;5012730;28;20030;-76
2021/05/20 03:48:16;;;;;;;4.47;3.88;;;;;;;7.81;100.00;97841.13;5013093;28;20542;-76
2021/05/20 03:50:42;;;;;;;4.32;3.53;;;;;;;7.83;100.00;97844.41;5012971;28;20104;-75
2021/05/20 03:53:07;;;;;;;5.47;4.38;;;;;;;7.83;100.00;97839.75;5013019;28;20061;-76
2021/05/20 03:55:33;;;;;;;6.10;4.32;;;;;;;7.82;100.00;97843.59;5012167;28;20033;-75
2021/05/20 03:57:58;;;;;;;7.28;4.53;;;;;;;7.71;100.00;97831.09;5012662;28;20033;-75
2021/05/20 04:00:24;;;;;;;6.22;3.88;;;;;;;7.76;100.00;97846.63;4994817;28;20893;-75
2021/05/20 04:02:50;;;;;;;5.45;3.83;;;;;;;7.84;100.00;97844.09;5012214;28;20408;-75
2021/05/20 04:05:16;;;;;;;8.00;4.47;;;;;;;7.86;100.00;97852.81;5013287;28;20086;-75
2021/05/20 04:07:41;;;;;;;6.63;3.33;;;;;;;7.72;100.00;97848.25;5012794;28;20033;-75
2021/05/20 04:10:08;;;;;;;4.80;3.35;;;;;;;7.81;100.00;97852.03;4995222;28;20065;-77
2021/05/20 04:12:34;;;;;;;5.32;2.92;;;;;;;7.85;100.00;97850.38;5012500;28;20041;-75
2021/05/20 04:14:59;;;;;;;6.97;3.80;;;;;;;7.90;100.00;97850.34;5012224;28;20026;-76
2021/05/20 04:17:24;;;;;;;5.10;3.35;;;;;;;7.95;100.00;97853.06;5012507;28;20049;-75
2021/05/20 04:19:51;;;;;;;7.97;3.65;;;;;;;8.07;100.00;97850.78;5013141;28;20021;-75
2021/05/20 04:22:16;;;;;;;5.03;3.30;;;;;;;8.17;100.00;97864.34;5013718;28;20068;-76
2021/05/20 04:24:42;;;;;;;3.30;2.65;;;;;;;8.23;100.00;97868.69;5012146;28;20057;-75
2021/05/20 04:27:07;;;;;;;4.15;3.08;;;;;;;8.09;100.00;97859.50;4994712;28;20042;-75
2021/05/20 04:29:32;;;;;;;3.53;2.40;;;;;;;8.14;100.00;97867.66;5012203;28;20033;-76
2021/05/20 04:31:58;;;;;;;3.75;3.10;;;;;;;8.16;100.00;97879.06;4994622;28;20037;-75
2021/05/20 04:34:23;;;;;;;3.25;2.88;;;;;;;8.15;100.00;97885.59;5013125;28;20036;-80
2021/05/20 04:36:49;;;;;;;5.13;2.88;;;;;;;8.11;100.00;97884.56;4995210;28;20144;-79
2021/05/20 04:39:15;;;;;;;4.68;3.88;;;;;;;8.05;100.00;97891.09;5012226;28;20076;-76
2021/05/20 04:41:40;;;;;;;4.65;3.97;;;;;;;8.06;100.00;97876.41;5012342;28;20029;-77
2021/05/20 04:44:06;;;;;;;4.15;3.42;;;;;;;8.12;100.00;97885.34;5012399;28;20022;-83
2021/05/20 04:46:31;;;;;;;5.43;4.22;;;;;;;8.25;100.00;97879.28;4995289;28;20037;-78
2021/05/20 04:48:57;;;;;;;5.38;3.88;;;;;;;8.36;100.00;97870.00;5019707;28;20089;-79
2021/05/20 04:51:22;;;;;;;4.72;3.53;;;;;;;8.42;100.00;97868.84;5019586;28;20033;-80
2021/05/20 04:53:49;;;;;;;6.90;3.47;;;;;;;8.30;100.00;97865.66;5003068;28;20036;-79
2021/05/20 04:56:22;;;;;;;4.22;3.55;;;;;;;8.44;100.00;97862.00;5021359;28;20032;-84
2021/05/20 04:58:47;;;;;;;6.72;4.15;;;;;;;8.63;100.00;97877.69;4994640;28;21264;-79
2021/05/20 05:01:12;;;;;;;3.53;3.22;;;;;;;8.77;100.00;97878.69;5018179;28;20032;-79
2021/05/20 05:03:40;;;;;;;3.55;3.20;;;;;;;8.79;100.00;97887.38;5012899;28;20046;-82
2021/05/20 05:06:07;;;;;;;4.57;3.13;;;;;;;8.75;100.00;97891.75;5022296;28;20042;-75
2021/05/20 05:08:32;;;;;;;5.22;3.20;;;;;;;8.76;100.00;97891.50;5002554;28;20504;-75
2021/05/20 05:10:57;;;;;;;3.38;3.08;;;;;;;8.63;100.00;97888.59;5017418;28;20467;-76
2021/05/20 05:13:23;;;;;;;3.97;3.10;;;;;;;8.92;100.00;97884.00;5018621;28;20041;-78
2021/05/20 05:15:51;;;;;;;7.63;3.30;;;;;;;9.11;98.96;97888.44;5002976;28;20389;-77
2021/05/20 05:18:16;;;;;;;3.28;2.85;;;;;;;9.14;98.58;97889.78;5021905;28;20487;-76
2021/05/20 05:20:43;;;;;;;3.03;2.72;;;;;;;9.13;99.31;97885.44;5000717;28;20033;-78
2021/05/20 05:23:08;;;;;;;3.17;2.35;;;;;;;9.20;98.34;97907.75;4998509;28;20108;-76
2021/05/20 05:25:37;;;;;;;2.75;2.50;;;;;;;9.31;97.62;97903.81;5020132;28;20580;-76
2021/05/20 05:28:02;;;;;;;3.50;2.92;;;;;;;9.46;97.81;97906.38;5014593;28;20025;-78
2021/05/20 05:30:32;;;;;;;2.95;2.47;;;;;;;9.57;96.83;97907.91;5015519;28;20104;-77
2021/05/20 05:32:57;;;;;;;4.50;2.97;;;;;;;10.01;94.06;97912.31;4985225;28;20034;-77
2021/05/20 05:35:23;;;;;;;3.60;2.55;;;;;;;9.79;93.58;97917.50;5012457;28;20025;-78
2021/05/20 05:37:48;;;;;;;3.78;2.70;;;;;;;9.49;95.15;97919.44;5016369;28;20440;-75
2021/05/20 05:40:15;;;;;;;3.67;2.75;;;;;;;10.02;93.09;97936.59;5030182;28;20028;-75
2021/05/20 05:42:40;;;;;;;4.32;2.53;;;;;;;10.40;91.60;97937.50;5013063;28;20171;-75
2021/05/20 05:45:07;;;;;;;3.45;3.15;;;;;;;10.80;89.23;97929.81;5031343;28;20082;-76
2021/05/20 05:47:34;;;;;;;2.83;2.50;;;;;;;10.76;89.19;97929.59;5013387;28;20025;-81
2021/05/20 05:50:08;;;;;;;2.80;2.45;;;;;;;10.65;89.32;97922.66;5030390;28;20498;-79
2021/05/20 05:52:34;;;;;;;3.53;2.50;;;;;;;10.57;89.20;97923.31;5012706;28;20136;-78
2021/05/20 05:55:00;;;;;;;3.45;2.75;;;;;;;10.45;89.42;97925.69;5030837;28;20104;-76
2021/05/20 05:57:25;;;;;;;3.15;1.92;;;;;;;10.12;90.63;97935.66;5010146;28;20543;-76
2021/05/20 05:59:51;;;;;;;2.97;2.50;;;;;;;10.21;90.74;97937.47;5000560;28;20687;-78
2021/05/20 06:02:18;;;;;;;4.88;2.85;;;;;;;10.80;88.48;97935.28;5011544;28;20050;-77
2021/05/20 06:04:43;;;;;;;3.30;2.78;;;;;;;11.09;86.72;97927.69;4998147;28;20034;-76
2021/05/20 06:07:09;;;;;;;6.35;3.10;;;;;;;10.93;87.44;97929.06;5019493;28;20026;-76
2021/05/20 06:09:34;;;;;;;6.45;3.70;;;;;;;10.97;88.27;97933.63;5020036;28;20013;-75
2021/05/20 06:12:00;;;;;;;5.30;2.45;;;;;;;11.26;85.33;97939.72;5020809;28;20022;-77
2021/05/20 06:14:26;;;;;;;3.30;2.42;;;;;;;11.38;85.31;97941.97;5034292;28;20532;-79
2021/05/20 06:16:51;;;;;;;3.33;2.42;;;;;;;11.22;84.05;97943.34;5030208;28;20030;-75
2021/05/20 06:19:17;;;;;;;5.97;3.08;;;;;;;11.48;83.86;97946.47;5030270;28;20050;-77
2021/05/20 06:21:42;;;;;;;5.07;3.20;;;;;;;11.32;84.43;97959.59;5019597;28;20033;-75
2021/05/20 06:24:09;;;;;;;7.38;2.50;;;;;;;11.29;84.71;97957.47;5024146;28;20033;-76
2021/05/20 06:26:36;;;;;;;3.72;2.65;;;;;;;11.43;84.92;97955.59;5023122;28;20021;-75
2021/05/20 06:29:02;;;;;;;4.00;2.65;;;;;;;11.69;82.46;97956.75;5024007;28;20025;-75
2021/05/20 06:31:28;;;;;;;2.97;2.50;;;;;;;11.45;83.13;97958.84;5028162;28;20031;-75
2021/05/20 06:33:54;;;;;;;4.70;2.20;;;;;;;11.73;82.25;97966.03;5031366;28;20164;-75
2021/05/20 06:36:20;;;;;;;5.60;2.15;;;;;;;12.36;79.66;97968.06;5023805;28;20870;-76
2021/05/20 06:38:46;;;;;;;5.55;2.17;;;;;;;12.46;79.10;97961.56;5021725;28;20022;-75
2021/05/20 06:41:11;;;;;;;5.07;2.40;;;;;;;12.45;78.62;97971.72;5005881;28;20066;-75
2021/05/20 06:43:37;;;;;;;2.25;2.00;;;;;;;12.32;78.82;97969.78;5025793;28;20017;-75
2021/05/20 06:46:06;;;;;;;4.20;1.70;;;;;;;12.38;77.98;97971.31;5034056;28;20050;-77
2021/05/20 06:48:34;;;;;;;5.40;1.40;;;;;;;12.90;75.97;97972.66;5033522;28;20029;-76
2021/05/20 06:50:59;;;;;;;5.65;1.77;;;;;;;13.29;73.65;97969.25;5034109;28;20053;-82
2021/05/20 06:53:26;;;;;;;2.03;1.52;;;;;;;13.47;73.00;97960.00;5016206;28;20414;-79
2021/05/20 06:55:58;;;;;;;2.78;1.80;;;;;;;13.49;73.13;97966.00;5034342;28;20029;-75
2021/05/20 07:01:08;;;;;;;2.03;1.60;;;;;;;13.83;71.08;97979.13;5034628;28;20031;-78
2021/05/20 07:03:37;;;;;;;1.90;1.80;;;;;;;13.94;70.80;97978.53;5015963;28;20049;-78
2021/05/20 07:06:02;;;;;;;1.75;1.50;;;;;;;14.26;68.33;97976.56;5034023;28;20089;-76
2021/05/20 07:08:28;;;;;;;2.22;1.45;;;;;;;14.05;68.31;97970.81;5033373;28;20565;-77
2021/05/20 07:10:54;;;;;;;1.65;1.27;;;;;;;14.04;68.52;97951.88;5033407;28;20032;-79
2021/05/20 07:13:20;;;;;;;1.95;1.40;;;;;;;14.32;66.01;97975.28;5034087;28;20380;-78
2021/05/20 07:15:45;;;;;;;1.40;1.30;;;;;;;14.50;64.87;97988.00;5033532;28;20112;-78
2021/05/20 07:18:11;;;;;;;2.03;1.40;;;;;;;14.55;64.05;97965.00;5033885;28;20033;-79
2021/05/20 07:20:36;;;;;;;3.95;1.67;;;;;;;14.48;64.10;97965.47;5033696;28;20493;-78
2021/05/20 07:23:12;;;;;;;14.02;1.35;;;;;;;14.72;63.11;97967.81;5015802;28;20056;-78
2021/05/20 07:25:38;;;;;;;2.08;1.02;;;;;;;15.17;61.91;97971.88;5033220;28;20033;-78
2021/05/20 07:28:05;;;;;;;2.00;1.08;;;;;;;15.68;60.67;97973.81;5033438;28;20087;-79
2021/05/20 07:30:30;;;;;;;4.13;1.52;;;;;;;16.14;59.55;97986.81;5015577;28;20438;-78
2021/05/20 07:32:55;;;;;;;1.90;1.27;;;;;;;16.05;56.98;97967.53;5032933;28;20053;-78
2021/05/20 07:35:22;;;;;;;1.40;0.90;;;;;;;15.91;55.12;97983.47;5032426;28;20029;-78
2021/05/20 07:37:47;;;;;;;1.17;1.08;;;;;;;15.71;57.33;97983.38;5015787;28;20366;-77
2021/05/20 07:40:14;;;;;;;2.58;0.95;;;;;;;16.12;56.33;97983.56;5033318;28;20079;-79
2021/05/20 07:42:40;;;;;;;1.60;1.50;;;;;;;16.64;56.29;97984.16;4999280;28;20568;-78
2021/05/20 07:45:06;;;;;;;2.10;1.33;;;;;;;17.27;53.38;97985.00;5033194;28;20109;-79
2021/05/20 07:47:32;;;;;;;1.05;0.93;;;;;;;18.02;50.42;97995.69;5015465;28;20039;-77
2021/05/20 07:49:57;;;;;;;0.60;0.60;;;;;;;18.02;46.88;97978.25;5032632;28;20444;-77
2021/05/20 07:52:23;;;;;;;3.65;1.17;;;;;;;19.21;45.30;97997.19;5015275;28;20120;-77
2021/05/20 07:54:49;;;;;;;1.08;0.57;;;;;;;19.13;44.88;98001.75;5032797;28;20033;-78
2021/05/20 07:57:15;;;;;;;0.90;0.60;;;;;;;19.40;44.90;97991.88;5015076;28;20120;-80
2021/05/20 07:59:41;;;;;;;1.10;0.80;;;;;;;18.93;44.98;97983.28;5014908;28;20053;-77
2021/05/20 08:04:33;;;;;;;1.63;0.52;;;;;;;20.28;42.63;98004.63;5032660;28;20037;-79
2021/05/20 08:07:12;;;;;;;0.47;0.45;;;;;;;20.64;39.85;97998.03;5032883;28;20104;-77
2021/05/20 08:09:38;;;;;;;0.45;0.43;;;;;;;21.71;37.22;98011.19;5032821;28;20033;-78
2021/05/20 08:12:07;;;;;;;0.73;0.68;;;;;;;21.33;36.15;98006.41;5014672;28;20029;-77
2021/05/20 08:14:33;;;;;;;1.13;0.90;;;;;;;22.09;35.38;98003.97;5032837;28;20534;-76
2021/05/20 08:16:59;;;;;;;1.05;0.60;;;;;;;21.98;34.20;98012.16;5034595;28;20075;-81
2021/05/20 08:19:24;;;;;;;5.32;1.10;;;;;;;22.01;35.51;98017.00;5030487;28;20033;-78
2021/05/20 08:21:49;;;;;;;4.40;0.70;;;;;;;22.58;33.67;98006.88;5046339;28;21573;-78
2021/05/20 08:24:15;;;;;;;4.50;0.80;;;;;;;22.92;33.87;98008.66;5047371;28;20034;-77
2021/05/20 08:26:40;;;;;;;2.17;0.90;;;;;;;24.23;30.91;98005.63;5037038;28;20110;-77
2021/05/20 08:29:06;;;;;;;1.25;0.55;;;;;;;24.95;30.41;98005.91;5014537;28;20033;-77
2021/05/20 08:31:32;;;;;;;2.50;0.70;;;;;;;25.26;30.48;98010.13;5014082;28;20037;-78
2021/05/20 08:33:58;;;;;;;1.77;0.68;;;;;;;25.50;28.17;98008.66;5032129;28;20457;-75
2021/05/20 08:36:24;;;;;;;1.98;0.90;;;;;;;24.59;30.32;98008.78;5014868;28;20025;-77
2021/05/20 08:38:50;;;;;;;1.25;0.60;;;;;;;24.68;28.95;98009.25;5032950;28;20171;-78
2021/05/20 08:41:20;;;;;;;2.03;0.98;;;;;;;24.24;27.96;98010.06;5032174;28;20044;-79
2021/05/20 08:43:47;;;;;;;0.63;0.50;;;;;;;24.34;29.43;98009.31;5014075;28;20037;-75
2021/05/20 08:46:13;;;;;;;1.60;0.63;;;;;;;24.93;26.90;98015.88;5031804;28;20030;-76
2021/05/20 08:48:38;;;;;;;2.35;0.55;;;;;;;23.66;28.02;98011.72;5013932;28;20044;-75
2021/05/20 08:51:04;;;;;;;2.20;0.77;;;;;;;23.48;28.27;97997.53;5031703;28;20466;-77
2021/05/20 08:53:30;;;;;;;0.68;0.57;;;;;;;24.04;27.64;98022.56;5031835;28;20030;-80
2021/05/20 08:55:56;;;;;;;1.73;0.73;;;;;;;23.90;27.23;98016.81;5031582;28;20033;-78
2021/05/20 08:58:24;;;;;;;0.80;0.50;;;;;;;22.76;28.39;98013.56;4999520;28;20492;-76
2021/05/20 09:00:53;;;;;;;1.48;0.73;;;;;;;23.67;28.13;98021.72;4992989;28;20022;-80
2021/05/20 09:03:19;;;;;;;1.10;0.55;;;;;;;23.08;27.56;98020.47;4992611;28;20048;-79
2021/05/20 09:05:45;;;;;;;1.25;0.52;;;;;;;23.62;26.20;98016.47;4992897;28;20445;-79
2021/05/20 09:08:15;;;;;;;1.00;0.60;;;;;;;24.49;25.71;98016.69;4992805;28;20026;-79
2021/05/20 09:10:42;;;;;;;3.33;0.68;;;;;;;25.71;23.78;98019.19;4975331;28;20447;-78
2021/05/20 09:13:14;;;;;;;1.60;1.15;;;;;;;26.13;23.39;98024.94;4992910;28;20040;-78
2021/05/20 09:15:46;;;;;;;0.75;0.47;;;;;;;24.79;24.16;98024.13;4975714;28;20030;-77
2021/05/20 09:18:22;;;;;;;0.22;0.22;;;;;;;25.13;24.03;98028.41;4961857;28;20133;-77
2021/05/20 09:20:58;;;;;;;4.85;4.03;;;;;;;23.79;25.94;98029.84;4983271;28;20027;-78
2021/05/20 09:23:31;;;;;;;11.05;8.63;;;;;;;22.70;27.69;98029.03;4998505;28;20422;-76
2021/05/20 09:26:08;;;;;;;0.35;0.35;;;;;;;21.71;27.58;98025.09;4992038;28;20022;-78
2021/05/20 09:28:39;;;;;;;0.40;0.38;;;;;;;20.89;29.12;98016.09;4991881;28;20030;-79
2021/05/20 09:31:04;;;;;;;1.13;0.25;;;;;;;21.30;29.03;98028.63;4991902;28;20030;-78
2021/05/20 09:33:30;;;;;;;0.30;0.30;;;;;;;20.17;29.43;98011.88;4992321;28;20026;-78
2021/05/20 09:35:55;;;;;;;1.73;0.43;;;;;;;19.58;31.01;98023.69;4992002;28;20062;-77
2021/05/20 09:38:23;;;;;;;0.50;0.32;;;;;;;19.90;30.48;98023.81;4974470;28;20888;-76
2021/05/20 09:40:54;;;;;;;0.55;0.50;;;;;;;19.67;30.95;98026.34;4991763;28;20031;-78
2021/05/20 09:43:31;;;;;;;0.82;0.40;;;;;;;20.13;30.52;98025.66;4974363;28;20031;-77
2021/05/20 09:45:57;;;;;;;0.65;0.50;;;;;;;20.46;30.11;98014.22;4991706;28;20027;-78
2021/05/20 09:48:27;;;;;;;1.00;0.32;;;;;;;19.93;30.41;98021.13;4991837;28;20030;-78
2021/05/20 09:50:54;;;;;;;0.25;0.25;;;;;;;19.99;29.38;98016.13;4973968;28;20038;-79
2021/05/20 09:53:23;;;;;;;0.45;0.40;;;;;;;20.80;28.63;98021.03;4991691;28;20030;-78
2021/05/20 09:55:55;;;;;;;0.35;0.30;;;;;;;22.93;27.18;98029.78;4991636;28;20034;-78
2021/05/20 09:58:31;;;;;;;0.30;0.25;;;;;;;24.36;26.04;98022.94;4991344;28;20112;-80
2021/05/20 10:00:58;;;;;;;0.20;0.20;;;;;;;25.39;24.67;98031.00;4991300;28;20046;-78
2021/05/20 10:03:25;;;;;;;0.25;0.20;;;;;;;26.14;22.11;98040.59;4973447;28;20049;-78
2021/05/20 10:05:59;;;;;;;0.75;0.20;;;;;;;24.21;24.53;98037.97;4991766;28;20117;-78
2021/05/20 10:08:26;;;;;;;0.80;0.40;;;;;;;23.76;25.62;98027.81;4987305;28;20037;-78
2021/05/20 10:10:56;;;;;;;0.22;0.22;;;;;;;23.86;23.70;98039.13;4991356;28;20030;-77
2021/05/20 10:13:27;;;;;;;0.13;0.13;;;;;;;24.49;23.50;98030.69;4992308;28;20097;-79
2021/05/20 10:15:54;;;;;;;0.35;0.20;;;;;;;24.95;22.75;98038.69;4991499;28;20030;-78
2021/05/20 10:18:25;;;;;;;2.95;0.32;;;;;;;23.94;23.27;98034.41;4974948;28;20046;-77
2021/05/20 10:21:03;;;;;;;1.02;0.47;;;;;;;24.32;23.03;98030.47;4998899;28;20478;-76
2021/05/20 10:23:29;;;;;;;0.43;0.30;;;;;;;25.56;22.54;98041.53;4995373;28;20482;-77
2021/05/20 10:25:58;;;;;;;0.75;0.75;;;;;;;26.31;22.18;98037.06;4991421;28;20018;-77
2021/05/20 10:28:25;;;;;;;1.05;0.50;;;;;;;25.58;21.52;98035.53;4991050;28;20097;-76
2021/05/20 10:30:52;;;;;;;0.30;0.20;;;;;;;23.48;23.47;98028.25;4991310;28;20026;-75
2021/05/20 10:33:24;;;;;;;1.50;0.40;;;;;;;21.37;26.22;98031.53;4973537;28;20117;-77
2021/05/20 10:35:54;;;;;;;0.30;0.30;;;;;;;21.35;26.89;98026.34;4990809;28;20061;-78
2021/05/20 10:38:25;;;;;;;0.20;0.17;;;;;;;22.03;26.40;98031.34;4990088;28;20035;-76
2021/05/20 10:41:13;;;;;;;1.02;0.47;;;;;;;22.64;26.40;98033.28;4991240;28;20034;-76
2021/05/20 10:43:42;;;;;;;0.20;0.20;;;;;;;21.27;26.50;98023.75;4991205;28;20030;-75
2021/05/20 10:46:11;;;;;;;0.30;0.30;;;;;;;21.04;28.14;98022.81;4974092;28;20391;-74
2021/05/20 10:48:36;;;;;;;1.27;0.20;;;;;;;21.54;26.98;98019.19;4973587;28;20113;-76
2021/05/20 10:51:14;;;;;;;2.08;0.30;;;;;;;21.56;27.51;98012.06;4973404;28;20105;-76
2021/05/20 10:53:44;;;;;;;0.32;0.20;;;;;;;21.92;27.69;98019.22;4973406;28;20487;-76
2021/05/20 10:56:15;;;;;;;0.13;0.03;;;;;;;21.69;27.92;98010.75;4991113;28;20065;-75
2021/05/20 10:58:47;;;;;;;0.65;0.35;;;;;;;20.99;29.87;98015.53;4990998;28;20054;-75
2021/05/20 11:01:23;;;;;;;0.28;0.28;;;;;;;21.04;27.81;98020.03;4990795;28;20049;-75
2021/05/20 11:03:59;;;;;;;0.32;0.30;;;;;;;20.55;28.40;98022.41;4973016;28;20478;-76
2021/05/20 11:06:48;;;;;;;0.55;0.50;;;;;;;20.51;26.30;97997.31;4973816;28;20057;-77
2021/05/20 11:09:14;;;;;;;0.60;0.20;;;;;;;21.04;25.86;98023.63;4966071;28;20030;-75
2021/05/20 11:11:40;;;;;;;0.68;0.10;;;;;;;21.84;25.69;98022.97;4994664;28;20038;-76
2021/05/20 11:14:14;;;;;;;1.83;0.40;;;;;;;21.76;24.83;98033.19;4976788;28;20040;-76
2021/05/20 11:16:41;;;;;;;1.20;0.57;;;;;;;21.44;26.27;98030.88;4976981;28;20034;-78
2021/05/20 11:19:16;;;;;;;0.30;0.20;;;;;;;20.48;25.32;98016.66;4994759;28;20036;-77
2021/05/20 11:22:07;;;;;;;2.85;0.20;;;;;;;20.36;27.52;98009.19;4976917;28;20117;-74
2021/05/20 11:24:33;;;;;;;2.92;0.30;;;;;;;20.88;27.17;98006.16;4976930;28;20118;-74
2021/05/20 11:27:23;;;;;;;0.10;0.00;;;;;;;20.02;26.28;98012.63;4994193;28;20037;-75
2021/05/20 11:29:49;;;;;;;0.20;0.10;;;;;;;20.62;26.73;98014.22;4994320;28;20026;-78
2021/05/20 11:32:27;;;;;;;0.75;0.10;;;;;;;21.86;26.53;98009.50;4993691;28;20031;-79
2021/05/20 11:37:38;;;;;;;1.67;0.60;;;;;;;21.73;25.00;98016.41;4994073;28;20391;-80
2021/05/20 11:40:06;;;;;;;1.13;0.70;;;;;;;22.21;25.37;98009.41;5029419;28;20465;-81
2021/05/20 11:42:33;;;;;;;2.85;1.00;;;;;;;22.65;24.55;98015.34;5015322;28;20067;-82